createdAt,value
2023-04-06T00:01:06.205Z,100321.20
2023-04-06T00:03:35.507Z,100321.19
2023-04-06T00:06:05.321Z,100320.45
2023-04-06T00:08:36.651Z,100316.80
2023-04-06T00:11:06.069Z,100313.49
2023-04-06T00:13:35.742Z,100310.77
2023-04-06T00:16:06.341Z,100309.98
2023-04-06T00:18:35.442Z,100308.98
2023-04-06T00:21:05.014Z,100304.72
2023-04-06T00:23:34.314Z,100302.55
2023-04-06T00:26:03.430Z,100304.27
2023-04-06T00:28:32.589Z,100298.69
2023-04-06T00:31:02.152Z,100298.47
2023-04-06T00:33:30.580Z,100298.42
2023-04-06T00:35:59.092Z,100295.65
2023-04-06T00:38:27.508Z,100294.04
2023-04-06T00:40:56.331Z,100285.01
2023-04-06T00:43:25.398Z,100285.86
2023-04-06T00:45:54.443Z,100288.05
2023-04-06T00:48:22.736Z,100285.27
2023-04-06T00:50:51.174Z,100284.42
2023-04-06T00:53:19.507Z,100283.05
2023-04-06T00:55:47.942Z,100284.94
2023-04-06T00:58:16.530Z,100281.38
2023-04-06T01:00:45.472Z,100279.27
2023-04-06T01:03:14.295Z,100275.75
2023-04-06T01:05:44.489Z,100269.79
2023-04-06T01:08:12.910Z,100271.73
2023-04-06T01:10:42.105Z,100268.63
2023-04-06T01:13:10.711Z,100269.48
2023-04-06T01:15:40.193Z,100268.73
2023-04-06T01:18:10.786Z,100264.91
2023-04-06T01:20:40.025Z,100263.33
2023-04-06T01:23:08.801Z,100260.24
2023-04-06T01:25:37.187Z,100257.17
2023-04-06T01:28:06.281Z,100258.41
2023-04-06T01:30:36.055Z,100252.55
2023-04-06T01:33:05.372Z,100248.88
2023-04-06T01:35:34.696Z,100242.08
2023-04-06T01:38:03.253Z,100241.23
2023-04-06T01:40:32.866Z,100233.14
2023-04-06T01:43:01.372Z,100235.76
2023-04-06T01:45:30.218Z,100234.77
2023-04-06T01:47:58.693Z,100235.64
2023-04-06T01:50:27.181Z,100231.71
2023-04-06T01:52:58.454Z,100228.82
2023-04-06T01:55:27.150Z,100225.33
2023-04-06T01:57:55.740Z,100223.52
2023-04-06T02:00:24.466Z,100223.70
2023-04-06T02:02:52.734Z,100215.73
2023-04-06T02:05:21.869Z,100213.64
2023-04-06T02:07:50.331Z,100208.63
2023-04-06T02:10:18.786Z,100211.23
2023-04-06T02:12:47.361Z,100209.98
2023-04-06T02:15:16.464Z,100203.22
2023-04-06T02:17:45.509Z,100203.67
2023-04-06T02:20:15.392Z,100203.13
2023-04-06T02:22:44.032Z,100199.86
2023-04-06T02:25:12.737Z,100198.57
2023-04-06T02:27:41.632Z,100196.87
2023-04-06T02:30:11.516Z,100198.96
2023-04-06T02:32:39.878Z,100197.27
2023-04-06T02:35:09.089Z,100195.72
2023-04-06T02:37:37.338Z,100193.82
2023-04-06T02:40:11.798Z,100191.91
2023-04-06T02:42:42.220Z,100192.27
2023-04-06T02:45:10.593Z,100193.45
2023-04-06T02:47:39.077Z,100193.91
2023-04-06T02:50:07.983Z,100194.70
2023-04-06T02:52:37.362Z,100192.23
2023-04-06T02:55:09.522Z,100188.38
2023-04-06T02:57:37.898Z,100184.42
2023-04-06T03:00:08.510Z,100188.43
2023-04-06T03:02:37.579Z,100191.58
2023-04-06T03:05:07.438Z,100190.59
2023-04-06T03:07:36.556Z,100190.05
2023-04-06T03:10:06.684Z,100187.61
2023-04-06T03:12:39.168Z,100188.80
2023-04-06T03:15:09.142Z,100183.45
2023-04-06T03:17:37.789Z,100183.83
2023-04-06T03:20:07.535Z,100188.58
2023-04-06T03:22:36.751Z,100187.59
2023-04-06T03:25:06.952Z,100189.17
2023-04-06T03:27:36.194Z,100186.73
2023-04-06T03:30:06.316Z,100185.39
2023-04-06T03:32:36.759Z,100189.46
2023-04-06T03:35:06.560Z,100186.64
2023-04-06T03:37:35.757Z,100187.89
2023-04-06T03:40:06.229Z,100191.00
2023-04-06T03:42:35.538Z,100191.63
2023-04-06T03:45:04.641Z,100187.08
2023-04-06T03:47:33.795Z,100187.32
2023-04-06T03:50:03.687Z,100186.09
2023-04-06T03:52:32.802Z,100192.06
2023-04-06T03:55:02.590Z,100186.98
2023-04-06T03:57:31.056Z,100187.85
2023-04-06T03:59:59.486Z,100189.46
2023-04-06T04:02:28.460Z,100191.50
2023-04-06T04:04:57.196Z,100195.08
2023-04-06T04:07:25.617Z,100190.53
2023-04-06T04:09:54.340Z,100190.77
2023-04-06T04:12:23.189Z,100193.90
2023-04-06T04:15:16.938Z,100192.61
2023-04-06T04:17:50.746Z,100193.10
2023-04-06T04:20:23.402Z,100193.18
2023-04-06T04:22:56.326Z,100194.71
2023-04-06T04:25:28.886Z,100193.97
2023-04-06T04:28:03.035Z,100196.14
2023-04-06T04:30:36.803Z,100196.11
2023-04-06T04:33:14.106Z,100196.67
2023-04-06T04:35:46.742Z,100191.79
2023-04-06T04:38:21.001Z,100192.33
2023-04-06T04:40:53.641Z,100193.89
2023-04-06T04:43:26.705Z,100190.56
2023-04-06T04:46:00.258Z,100191.36
2023-04-06T04:48:34.178Z,100191.66
2023-04-06T04:51:08.928Z,100188.55
2023-04-06T04:53:42.553Z,100190.58
2023-04-06T04:56:15.364Z,100191.06
2023-04-06T04:58:48.082Z,100187.08
2023-04-06T05:01:20.765Z,100190.06
2023-04-06T05:03:55.065Z,100191.98
2023-04-06T05:06:28.127Z,100191.81
2023-04-06T05:09:00.759Z,100194.80
2023-04-06T05:11:33.281Z,100193.91
2023-04-06T05:14:07.511Z,100193.02
2023-04-06T05:16:41.934Z,100190.82
2023-04-06T05:19:15.390Z,100192.98
2023-04-06T05:21:48.107Z,100192.96
2023-04-06T05:24:21.330Z,100189.69
2023-04-06T05:26:54.267Z,100191.70
2023-04-06T05:29:27.436Z,100191.61
2023-04-06T05:32:03.417Z,100191.05
2023-04-06T05:35:10.095Z,100190.30
2023-04-06T05:37:55.957Z,100192.15
2023-04-06T05:40:31.710Z,100190.85
2023-04-06T05:43:04.567Z,100186.02
2023-04-06T05:45:38.955Z,100189.14
2023-04-06T05:48:11.967Z,100184.98
2023-04-06T05:50:45.037Z,100184.77
2023-04-06T05:53:17.616Z,100180.09
2023-04-06T05:55:50.528Z,100181.01
2023-04-06T05:58:23.146Z,100181.02
2023-04-06T06:01:00.742Z,100175.47
2023-04-06T06:03:33.521Z,100173.90
2023-04-06T06:06:08.212Z,100169.23
2023-04-06T06:08:41.777Z,100173.09
2023-04-06T06:11:14.848Z,100172.93
2023-04-06T06:13:51.088Z,100169.23
2023-04-06T06:16:30.435Z,100170.73
2023-04-06T06:19:03.163Z,100170.91
2023-04-06T06:21:36.505Z,100170.68
2023-04-06T06:24:10.796Z,100164.29
2023-04-06T06:26:45.455Z,100164.15
2023-04-06T06:29:18.402Z,100167.48
2023-04-06T06:31:51.569Z,100166.33
2023-04-06T06:34:24.620Z,100162.73
2023-04-06T06:36:57.852Z,100164.17
2023-04-06T06:39:30.821Z,100161.34
2023-04-06T06:42:03.782Z,100166.33
2023-04-06T06:44:39.189Z,100166.71
2023-04-06T06:47:12.260Z,100163.86
2023-04-06T06:49:45.144Z,100163.65
2023-04-06T06:52:18.176Z,100168.98
2023-04-06T06:54:51.098Z,100171.30
2023-04-06T06:57:24.089Z,100173.23
2023-04-06T06:59:56.897Z,100177.77
2023-04-06T07:02:30.158Z,100178.09
2023-04-06T07:05:10.154Z,100175.66
2023-04-06T07:07:49.904Z,100176.24
2023-04-06T07:10:27.604Z,100176.43
2023-04-06T07:13:00.854Z,100178.37
2023-04-06T07:15:34.779Z,100179.43
2023-04-06T07:18:10.999Z,100179.59
2023-04-06T07:20:44.020Z,100173.84
2023-04-06T07:23:17.341Z,100176.67
2023-04-06T07:25:52.173Z,100179.70
2023-04-06T07:28:27.459Z,100174.86
2023-04-06T07:31:00.373Z,100175.23
2023-04-06T07:33:33.316Z,100173.18
2023-04-06T07:36:07.151Z,100166.62
2023-04-06T07:38:41.304Z,100169.46
2023-04-06T07:41:14.118Z,100173.13
2023-04-06T07:43:46.748Z,100171.92
2023-04-06T07:46:19.713Z,100167.61
2023-04-06T07:48:52.724Z,100162.97
2023-04-06T07:51:26.739Z,100164.21
2023-04-06T07:53:59.807Z,100168.27
2023-04-06T07:56:33.187Z,100164.13
2023-04-06T07:59:05.920Z,100168.98
2023-04-06T08:01:39.928Z,100163.98
2023-04-06T08:04:13.582Z,100162.48
2023-04-06T08:06:46.658Z,100162.86
2023-04-06T08:09:19.785Z,100160.61
2023-04-06T08:11:52.524Z,100161.16
2023-04-06T08:14:25.364Z,100157.88
2023-04-06T08:16:58.047Z,100150.23
2023-04-06T08:19:31.834Z,100149.91
2023-04-06T08:22:05.133Z,100153.07
2023-04-06T08:24:39.601Z,100152.72
2023-04-06T08:27:15.156Z,100152.02
2023-04-06T08:29:48.305Z,100150.30
2023-04-06T08:32:21.100Z,100151.34
2023-04-06T08:34:57.404Z,100155.70
2023-04-06T08:37:35.547Z,100154.65
2023-04-06T08:40:10.917Z,100150.47
2023-04-06T08:42:51.993Z,100155.86
2023-04-06T08:45:24.794Z,100149.77
2023-04-06T08:48:02.951Z,100155.69
2023-04-06T08:50:37.871Z,100151.16
2023-04-06T08:53:13.462Z,100147.67
2023-04-06T08:55:48.216Z,100141.77
2023-04-06T08:58:37.329Z,100142.28
2023-04-06T09:01:16.613Z,100148.00
2023-04-06T09:03:51.653Z,100150.41
2023-04-06T09:06:25.465Z,100154.23
2023-04-06T09:08:59.171Z,100151.99
2023-04-06T09:11:31.981Z,100145.73
2023-04-06T09:14:04.732Z,100146.63
2023-04-06T09:16:47.786Z,100150.78
2023-04-06T09:19:21.933Z,100149.75
2023-04-06T09:22:05.636Z,100151.83
2023-04-06T09:24:47.478Z,100152.89
2023-04-06T09:27:21.089Z,100151.14
2023-04-06T09:30:05.087Z,100146.80
2023-04-06T09:32:49.083Z,100150.26
2023-04-06T09:35:23.274Z,100152.34
2023-04-06T09:37:57.253Z,100153.20
2023-04-06T09:40:30.384Z,100153.38
2023-04-06T09:43:09.053Z,100153.54
2023-04-06T09:45:43.078Z,100145.89
2023-04-06T09:48:16.581Z,100154.60
2023-04-06T09:50:51.178Z,100147.80
2023-04-06T09:53:27.786Z,100148.31
2023-04-06T09:56:05.218Z,100146.58
2023-04-06T09:58:46.017Z,100145.52
2023-04-06T10:01:24.567Z,100151.40
2023-04-06T10:04:09.198Z,100148.56
2023-04-06T10:06:43.589Z,100147.12
2023-04-06T10:09:17.095Z,100151.45
2023-04-06T10:11:51.522Z,100150.36
2023-04-06T10:14:25.760Z,100149.16
2023-04-06T10:17:00.528Z,100147.06
2023-04-06T10:19:41.390Z,100146.65
2023-04-06T10:22:20.992Z,100150.49
2023-04-06T10:24:54.115Z,100150.84
2023-04-06T10:27:35.043Z,100147.20
2023-04-06T10:30:11.522Z,100145.11
2023-04-06T10:32:45.753Z,100145.77
2023-04-06T10:35:20.670Z,100143.11
2023-04-06T10:37:55.912Z,100138.52
2023-04-06T10:40:30.479Z,100133.56
2023-04-06T10:43:15.805Z,100134.71
2023-04-06T10:45:56.973Z,100136.96
2023-04-06T10:48:44.073Z,100132.98
2023-04-06T10:51:18.465Z,100134.70
2023-04-06T10:53:52.435Z,100137.52
2023-04-06T10:56:29.311Z,100134.53
2023-04-06T10:59:02.378Z,100125.73
2023-04-06T11:01:35.214Z,100127.02
2023-04-06T11:04:14.459Z,100127.35
2023-04-06T11:06:51.948Z,100128.84
2023-04-06T11:09:32.639Z,100130.08
2023-04-06T11:12:09.079Z,100121.97
2023-04-06T11:14:42.805Z,100116.74
2023-04-06T11:17:19.216Z,100106.53
2023-04-06T11:20:12.287Z,100111.42
2023-04-06T11:22:54.366Z,100108.80
2023-04-06T11:25:28.921Z,100109.44
2023-04-06T11:28:06.573Z,100106.92
2023-04-06T11:30:43.325Z,100107.27
2023-04-06T11:33:25.228Z,100097.48
2023-04-06T11:36:01.171Z,100099.17
2023-04-06T11:38:34.217Z,100100.41
2023-04-06T11:41:08.604Z,100104.15
2023-04-06T11:43:48.784Z,100101.92
2023-04-06T11:46:23.250Z,100095.61
2023-04-06T11:49:00.400Z,100094.13
2023-04-06T11:51:53.525Z,100101.77
2023-04-06T11:54:56.401Z,100099.84
2023-04-06T11:57:29.187Z,100091.78
2023-04-06T12:00:01.898Z,100088.48
2023-04-06T12:02:34.833Z,100087.42
2023-04-06T12:05:10.128Z,100088.98
2023-04-06T12:07:43.895Z,100084.73
2023-04-06T12:10:17.229Z,100082.23
2023-04-06T12:12:49.780Z,100092.71
2023-04-06T12:15:22.788Z,100083.86
2023-04-06T12:17:55.411Z,100081.27
2023-04-06T12:20:28.795Z,100078.45
2023-04-06T12:23:01.424Z,100070.73
2023-04-06T12:25:34.430Z,100066.37
2023-04-06T12:28:07.142Z,100064.36
2023-04-06T12:30:42.652Z,100063.52
2023-04-06T12:33:15.477Z,100059.42
2023-04-06T12:35:48.324Z,100059.27
2023-04-06T12:38:22.295Z,100055.14
2023-04-06T12:40:55.128Z,100050.86
2023-04-06T12:43:27.770Z,100053.22
2023-04-06T12:46:01.141Z,100055.86
2023-04-06T12:48:34.569Z,100055.72
2023-04-06T12:51:09.734Z,100061.12
2023-04-06T12:53:43.480Z,100060.09
2023-04-06T12:56:18.574Z,100060.48
2023-04-06T12:58:52.965Z,100058.61
2023-04-06T13:01:26.974Z,100054.02
2023-04-06T13:04:00.543Z,100047.36
2023-04-06T13:06:33.493Z,100056.34
2023-04-06T13:09:06.904Z,100046.33
2023-04-06T13:11:42.639Z,100047.56
2023-04-06T13:14:15.363Z,100043.33
2023-04-06T13:16:48.562Z,100038.27
2023-04-06T13:19:21.326Z,100034.95
2023-04-06T13:21:54.745Z,100028.00
2023-04-06T13:24:31.718Z,100031.29
2023-04-06T13:27:07.093Z,100032.36
2023-04-06T13:29:41.137Z,100033.10
2023-04-06T13:32:14.377Z,100028.21
2023-04-06T13:34:49.273Z,100025.16
2023-04-06T13:37:22.381Z,100023.93
2023-04-06T13:39:54.907Z,100027.11
2023-04-06T13:42:29.199Z,100019.66
2023-04-06T13:45:02.094Z,100015.44
2023-04-06T13:47:36.191Z,100017.94
2023-04-06T13:50:10.627Z,100020.11
2023-04-06T13:52:44.970Z,100014.77
2023-04-06T13:55:22.818Z,100023.36
2023-04-06T13:57:59.487Z,100015.70
2023-04-06T14:00:40.454Z,100012.92
2023-04-06T14:03:18.614Z,100011.05
2023-04-06T14:06:09.341Z,100008.08
2023-04-06T14:08:55.989Z,100012.13
2023-04-06T14:12:27.285Z,100008.38
2023-04-06T14:15:13.824Z,100004.35
2023-04-06T14:17:47.874Z,100007.46
2023-04-06T14:20:22.006Z,100012.60
2023-04-06T14:22:56.902Z,100011.66
2023-04-06T14:25:29.876Z,100016.98
2023-04-06T14:28:02.688Z,100003.85
2023-04-06T14:30:36.113Z,100010.95
2023-04-06T14:33:09.570Z,100021.21
2023-04-06T14:35:44.414Z,100014.39
2023-04-06T14:38:21.999Z,100003.72
2023-04-06T14:41:00.603Z,100012.13
2023-04-06T14:43:34.106Z,100014.17
2023-04-06T14:46:07.032Z,100008.95
2023-04-06T14:48:41.591Z,100010.34
2023-04-06T14:51:14.377Z,100012.36
2023-04-06T14:53:47.518Z,100009.54
2023-04-06T14:56:25.074Z,100010.69
2023-04-06T14:58:59.861Z,100010.23
2023-04-06T15:01:36.433Z,100018.09
2023-04-06T15:04:10.385Z,100008.05
2023-04-06T15:06:55.421Z,100009.75
2023-04-06T15:09:28.922Z,100007.92
2023-04-06T15:12:02.653Z,100018.33
2023-04-06T15:14:37.209Z,100016.64
2023-04-06T15:17:11.267Z,100013.33
2023-04-06T15:20:03.533Z,100024.33
2023-04-06T15:22:37.791Z,100028.95
2023-04-06T15:25:12.846Z,100030.02
2023-04-06T15:27:46.305Z,100027.46
2023-04-06T15:30:19.277Z,100032.58
2023-04-06T15:32:59.676Z,100036.13
2023-04-06T15:35:40.863Z,100037.20
2023-04-06T15:38:44.069Z,100043.10
2023-04-06T15:41:17.578Z,100040.73
2023-04-06T15:43:50.411Z,100042.17
2023-04-06T15:46:41.624Z,100043.20
2023-04-06T15:49:23.419Z,100047.27
2023-04-06T15:51:56.525Z,100049.26
2023-04-06T15:54:37.386Z,100050.01
2023-04-06T15:57:14.987Z,100051.34
2023-04-06T15:59:56.412Z,100059.95
2023-04-06T16:02:31.774Z,100061.46
2023-04-06T16:05:05.626Z,100061.86
2023-04-06T16:07:38.729Z,100064.30
2023-04-06T16:10:14.045Z,100065.79
2023-04-06T16:12:47.185Z,100066.18
2023-04-06T16:15:22.194Z,100067.89
2023-04-06T16:17:55.198Z,100070.29
2023-04-06T16:20:34.783Z,100071.61
2023-04-06T16:23:07.436Z,100076.45
2023-04-06T16:25:44.351Z,100073.20
2023-04-06T16:28:18.999Z,100073.09
2023-04-06T16:30:54.017Z,100075.93
2023-04-06T16:33:26.627Z,100079.32
2023-04-06T16:36:00.399Z,100078.70
2023-04-06T16:38:35.915Z,100080.68
2023-04-06T16:41:09.373Z,100086.55
2023-04-06T16:43:43.995Z,100090.69
2023-04-06T16:46:17.544Z,100089.02
2023-04-06T16:48:50.371Z,100087.98
2023-04-06T16:51:52.769Z,100091.55
2023-04-06T16:54:54.555Z,100095.17
2023-04-06T16:57:30.205Z,100093.65
2023-04-06T17:00:30.690Z,100094.21
2023-04-06T17:03:18.411Z,100099.70
2023-04-06T17:05:54.827Z,100107.35
2023-04-06T17:09:12.730Z,100107.97
2023-04-06T17:11:47.238Z,100110.50
2023-04-06T17:14:23.437Z,100112.77
2023-04-06T17:17:01.825Z,100121.53
2023-04-06T17:19:40.978Z,100120.41
2023-04-06T17:22:22.779Z,100126.98
2023-04-06T17:24:55.727Z,100133.73
2023-04-06T17:27:34.763Z,100138.68
2023-04-06T17:30:14.159Z,100142.43
2023-04-06T17:32:48.091Z,100153.67
2023-04-06T17:35:21.649Z,100157.44
2023-04-06T17:37:54.624Z,100159.43
2023-04-06T17:40:28.652Z,100166.30
2023-04-06T17:43:01.716Z,100170.36
2023-04-06T17:45:40.982Z,100174.77
2023-04-06T17:48:16.734Z,100180.23
2023-04-06T17:50:52.117Z,100184.27
2023-04-06T17:53:30.841Z,100193.22
2023-04-06T17:56:05.857Z,100202.36
2023-04-06T17:58:41.405Z,100230.13
2023-04-06T18:01:14.969Z,100216.75
2023-04-06T18:03:52.911Z,100223.07
2023-04-06T18:06:28.039Z,100227.28
2023-04-06T18:09:01.821Z,100219.80
2023-04-06T18:11:35.242Z,100235.00
2023-04-06T18:14:16.187Z,100233.28
2023-04-06T18:16:53.138Z,100242.20
2023-04-06T18:19:25.858Z,100248.67
2023-04-06T18:21:59.468Z,100251.65
2023-04-06T18:24:43.434Z,100249.92
2023-04-06T18:27:25.627Z,100261.95
2023-04-06T18:29:59.953Z,100264.58
2023-04-06T18:32:38.555Z,100271.38
2023-04-06T18:35:14.524Z,100278.89
2023-04-06T18:37:48.331Z,100278.20
2023-04-06T18:40:37.296Z,100282.73
2023-04-06T18:43:12.842Z,100286.76
2023-04-06T18:45:48.524Z,100282.73
2023-04-06T18:48:21.787Z,100282.38
2023-04-06T18:51:06.884Z,100285.70
2023-04-06T18:53:40.178Z,100287.27
2023-04-06T18:56:21.543Z,100295.29
2023-04-06T18:58:55.722Z,100293.71
2023-04-06T19:01:43.852Z,100294.94
2023-04-06T19:04:21.817Z,100299.11
2023-04-06T19:06:56.664Z,100298.58
2023-04-06T19:09:32.911Z,100303.27
2023-04-06T19:12:50.712Z,100304.48
2023-04-06T19:15:30.363Z,100306.86
2023-04-06T19:18:04.202Z,100310.64
2023-04-06T19:20:59.482Z,100319.33
2023-04-06T19:23:35.612Z,100317.61
2023-04-06T19:26:14.279Z,100310.24
2023-04-06T19:28:59.321Z,100312.98
2023-04-06T19:31:52.427Z,100311.92
2023-04-06T19:39:03.104Z,100317.57
2023-04-06T19:46:59.499Z,100329.46
2023-04-06T19:58:06.881Z,100339.13
2023-04-06T20:05:02.607Z,100349.61
2023-04-06T20:08:07.183Z,100353.10
2023-04-06T20:11:45.383Z,100356.08
2023-04-06T20:15:00.477Z,100354.69
2023-04-06T20:18:31.645Z,100356.61
2023-04-06T20:21:52.501Z,100355.91
2023-04-06T20:29:09.736Z,100360.10
2023-04-06T20:40:28.566Z,100366.89
2023-04-06T20:47:53.113Z,100371.42
2023-04-06T20:51:49.787Z,100376.83
2023-04-06T20:55:09.214Z,100381.86
2023-04-06T20:58:15.888Z,100387.95
2023-04-06T21:05:33.550Z,100384.79
2023-04-06T21:12:29.943Z,100388.61
2023-04-06T21:15:49.849Z,100392.77
2023-04-06T21:18:26.114Z,100396.10
2023-04-06T21:21:02.023Z,100395.59
2023-04-06T21:24:25.299Z,100396.98
2023-04-06T21:27:29.092Z,100404.11
2023-04-06T21:30:42.306Z,100404.80
2023-04-06T21:34:02.356Z,100403.40
2023-04-06T21:37:05.533Z,100403.24
2023-04-06T21:44:07.167Z,100409.69
2023-04-06T21:47:42.795Z,100410.05
2023-04-06T21:55:11.680Z,100413.52
2023-04-06T21:58:32.925Z,100414.43
2023-04-06T22:01:25.654Z,100416.36
2023-04-06T22:05:44.796Z,100417.75
2023-04-06T22:09:42.770Z,100422.45
2023-04-06T22:12:59.284Z,100426.96
2023-04-06T22:17:03.753Z,100426.91
2023-04-06T22:21:06.152Z,100425.09
2023-04-06T22:24:44.541Z,100421.46
2023-04-06T22:27:55.170Z,100422.05
2023-04-06T22:31:14.919Z,100420.41
2023-04-06T22:34:40.522Z,100417.90
2023-04-06T22:38:04.616Z,100413.88
2023-04-06T22:41:32.329Z,100415.24
2023-04-06T22:44:43.108Z,100422.48
2023-04-06T22:47:54.979Z,100417.95
2023-04-06T22:50:50.103Z,100412.42
2023-04-06T22:54:33.827Z,100411.91
2023-04-06T22:57:57.176Z,100408.95
2023-04-06T23:01:16.827Z,100406.14
2023-04-06T23:04:36.201Z,100405.84
2023-04-06T23:07:55.454Z,100411.30
2023-04-06T23:11:25.164Z,100410.41
2023-04-06T23:14:32.773Z,100406.73
2023-04-06T23:17:59.305Z,100406.53
2023-04-06T23:25:02.459Z,100398.89
2023-04-06T23:28:56.281Z,100400.70
2023-04-06T23:32:34.718Z,100407.64
2023-04-06T23:35:47.037Z,100404.98
2023-04-06T23:39:14.940Z,100403.80
2023-04-06T23:42:13.505Z,100406.27
2023-04-06T23:45:35.054Z,100406.61
2023-04-06T23:48:43.751Z,100408.71
2023-04-06T23:52:00.353Z,100405.27
2023-04-06T23:58:57.041Z,100410.13
